sensor_id;sensor_type;location;lat;lon;timestamp;pressure;altitude;pressure_sealevel;temperature;humidity
59055;BME280;44845;51.444;7.460;2022-12-18T00:01:12;100929.56;;;-1.94;65.77
59055;BME280;44845;51.444;7.460;2022-12-18T00:03:38;100916.28;;;-1.86;65.12
59055;BME280;44845;51.444;7.460;2022-12-18T00:06:04;100920.66;;;-1.85;64.97
59055;BME280;44845;51.444;7.460;2022-12-18T00:08:29;100920.09;;;-1.95;65.44
59055;BME280;44845;51.444;7.460;2022-12-18T00:10:54;100920.66;;;-1.85;65.19
59055;BME280;44845;51.444;7.460;2022-12-18T00:13:20;100905.56;;;-1.79;64.53
59055;BME280;44845;51.444;7.460;2022-12-18T00:15:45;100918.53;;;-1.77;65.01
59055;BME280;44845;51.444;7.460;2022-12-18T00:18:11;100923.16;;;-1.72;64.57
59055;BME280;44845;51.444;7.460;2022-12-18T00:20:37;100934.53;;;-1.68;64.73
59055;BME280;44845;51.444;7.460;2022-12-18T00:23:04;100938.00;;;-1.67;64.97
59055;BME280;44845;51.444;7.460;2022-12-18T00:25:33;100942.50;;;-1.63;64.98
59055;BME280;44845;51.444;7.460;2022-12-18T00:27:59;100927.97;;;-1.63;64.47
59055;BME280;44845;51.444;7.460;2022-12-18T00:30:24;100929.03;;;-1.59;64.17
59055;BME280;44845;51.444;7.460;2022-12-18T00:32:50;100932.22;;;-1.63;63.92
59055;BME280;44845;51.444;7.460;2022-12-18T00:35:15;100930.63;;;-1.61;64.25
59055;BME280;44845;51.444;7.460;2022-12-18T00:37:41;100923.53;;;-1.65;64.26
59055;BME280;44845;51.444;7.460;2022-12-18T00:40:06;100924.41;;;-1.65;64.08
59055;BME280;44845;51.444;7.460;2022-12-18T00:42:32;100919.28;;;-1.65;64.13
59055;BME280;44845;51.444;7.460;2022-12-18T00:45:16;100925.13;;;-1.67;64.58
59055;BME280;44845;51.444;7.460;2022-12-18T00:47:41;100928.22;;;-1.73;63.87
59055;BME280;44845;51.444;7.460;2022-12-18T00:50:07;100942.50;;;-1.63;63.59
59055;BME280;44845;51.444;7.460;2022-12-18T00:52:32;100931.88;;;-1.54;64.10
59055;BME280;44845;51.444;7.460;2022-12-18T00:54:58;100927.81;;;-1.51;63.97
59055;BME280;44845;51.444;7.460;2022-12-18T00:57:23;100929.91;;;-1.59;63.09
59055;BME280;44845;51.444;7.460;2022-12-18T00:59:48;100931.00;;;-1.55;63.18
59055;BME280;44845;51.444;7.460;2022-12-18T01:02:14;100926.00;;;-1.52;63.37
59055;BME280;44845;51.444;7.460;2022-12-18T01:04:39;100930.63;;;-1.61;64.06
59055;BME280;44845;51.444;7.460;2022-12-18T01:07:04;100927.81;;;-1.51;64.07
59055;BME280;44845;51.444;7.460;2022-12-18T01:09:30;100925.41;;;-1.48;63.76
59055;BME280;44845;51.444;7.460;2022-12-18T01:11:55;100920.88;;;-1.52;63.81
59055;BME280;44845;51.444;7.460;2022-12-18T01:14:20;100912.19;;;-1.54;63.99
59055;BME280;44845;51.444;7.460;2022-12-18T01:16:46;100908.81;;;-1.53;63.91
59055;BME280;44845;51.444;7.460;2022-12-18T01:19:11;100910.56;;;-1.52;63.40
59055;BME280;44845;51.444;7.460;2022-12-18T01:21:36;100930.56;;;-1.48;63.88
59055;BME280;44845;51.444;7.460;2022-12-18T01:24:02;100931.88;;;-1.54;64.25
59055;BME280;44845;51.444;7.460;2022-12-18T01:26:28;100922.91;;;-1.46;63.84
59055;BME280;44845;51.444;7.460;2022-12-18T01:28:55;100927.25;;;-1.45;63.67
59055;BME280;44845;51.444;7.460;2022-12-18T01:31:27;100921.41;;;-1.42;63.23
59055;BME280;44845;51.444;7.460;2022-12-18T01:33:54;100934.53;;;-1.38;63.65
59055;BME280;44845;51.444;7.460;2022-12-18T01:36:23;100922.47;;;-1.39;63.99
59055;BME280;44845;51.444;7.460;2022-12-18T01:38:48;100928.69;;;-1.35;63.77
59055;BME280;44845;51.444;7.460;2022-12-18T01:41:19;100942.19;;;-1.39;64.20
59055;BME280;44845;51.444;7.460;2022-12-18T01:43:48;100936.50;;;-1.33;63.82
59055;BME280;44845;51.444;7.460;2022-12-18T01:46:15;100927.00;;;-1.34;63.72
59055;BME280;44845;51.444;7.460;2022-12-18T01:48:43;100920.19;;;-1.34;64.11
59055;BME280;44845;51.444;7.460;2022-12-18T01:51:11;100913.44;;;-1.32;63.93
59055;BME280;44845;51.444;7.460;2022-12-18T01:53:39;100921.78;;;-1.36;64.07
59055;BME280;44845;51.444;7.460;2022-12-18T01:56:05;100914.25;;;-1.33;63.73
59055;BME280;44845;51.444;7.460;2022-12-18T01:58:52;100915.38;;;-1.28;63.96
59055;BME280;44845;51.444;7.460;2022-12-18T02:01:21;100911.13;;;-1.27;63.98
59055;BME280;44845;51.444;7.460;2022-12-18T02:03:47;100911.13;;;-1.27;64.09
59055;BME280;44845;51.444;7.460;2022-12-18T02:06:20;100909.25;;;-1.30;64.02
59055;BME280;44845;51.444;7.460;2022-12-18T02:14:23;100925.69;;;-1.43;64.64
59055;BME280;44845;51.444;7.460;2022-12-18T02:16:57;100921.25;;;-1.45;63.61
59055;BME280;44845;51.444;7.460;2022-12-18T02:19:47;100923.19;;;-1.41;64.34
59055;BME280;44845;51.444;7.460;2022-12-18T02:27:54;100928.34;;;-1.41;64.17
59055;BME280;44845;51.444;7.460;2022-12-18T02:30:22;100919.47;;;-1.31;64.12
59055;BME280;44845;51.444;7.460;2022-12-18T02:32:50;100925.66;;;-1.28;64.03
59055;BME280;44845;51.444;7.460;2022-12-18T02:35:22;100913.59;;;-1.29;64.18
59055;BME280;44845;51.444;7.460;2022-12-18T02:37:49;100903.50;;;-1.26;63.99
59055;BME280;44845;51.444;7.460;2022-12-18T02:40:17;100899.13;;;-1.27;63.61
59055;BME280;44845;51.444;7.460;2022-12-18T02:42:43;100895.22;;;-1.35;63.86
59055;BME280;44845;51.444;7.460;2022-12-18T02:45:09;100898.94;;;-1.30;63.66
59055;BME280;44845;51.444;7.460;2022-12-18T02:47:38;100891.22;;;-1.30;63.84
59055;BME280;44845;51.444;7.460;2022-12-18T02:50:38;100890.44;;;-1.29;63.88
59055;BME280;44845;51.444;7.460;2022-12-18T02:53:27;100901.63;;;-1.28;64.36
59055;BME280;44845;51.444;7.460;2022-12-18T03:04:24;100905.97;;;-1.27;63.63
59055;BME280;44845;51.444;7.460;2022-12-18T03:06:55;100912.19;;;-1.23;63.44
59055;BME280;44845;51.444;7.460;2022-12-18T03:09:33;100900.09;;;-1.25;63.47
59055;BME280;44845;51.444;7.460;2022-12-18T03:12:32;100901.78;;;-1.25;63.19
59055;BME280;44845;51.444;7.460;2022-12-18T03:17:35;100906.22;;;-1.22;63.07
59055;BME280;44845;51.444;7.460;2022-12-18T03:20:14;100900.47;;;-1.18;63.20
59055;BME280;44845;51.444;7.460;2022-12-18T03:22:41;100902.22;;;-1.17;62.52
59055;BME280;44845;51.444;7.460;2022-12-18T03:25:11;100911.63;;;-1.18;63.19
59055;BME280;44845;51.444;7.460;2022-12-18T03:27:42;100901.78;;;-1.25;62.78
59055;BME280;44845;51.444;7.460;2022-12-18T03:30:12;100909.16;;;-1.16;62.67
59055;BME280;44845;51.444;7.460;2022-12-18T03:32:46;100893.53;;;-1.19;63.08
59055;BME280;44845;51.444;7.460;2022-12-18T03:35:19;100897.09;;;-1.17;62.83
59055;BME280;44845;51.444;7.460;2022-12-18T03:37:46;100888.13;;;-1.24;62.66
59055;BME280;44845;51.444;7.460;2022-12-18T03:40:11;100884.78;;;-1.23;62.76
59055;BME280;44845;51.444;7.460;2022-12-18T03:42:50;100885.88;;;-1.18;62.84
59055;BME280;44845;51.444;7.460;2022-12-18T03:45:27;100882.91;;;-1.26;62.57
59055;BME280;44845;51.444;7.460;2022-12-18T03:48:03;100879.16;;;-1.16;62.10
59055;BME280;44845;51.444;7.460;2022-12-18T03:50:37;100879.25;;;-1.14;62.74
59055;BME280;44845;51.444;7.460;2022-12-18T03:53:27;100880.03;;;-1.15;62.50
59055;BME280;44845;51.444;7.460;2022-12-18T03:55:55;100888.56;;;-1.16;62.55
59055;BME280;44845;51.444;7.460;2022-12-18T03:58:24;100897.25;;;-1.14;62.73
59055;BME280;44845;51.444;7.460;2022-12-18T04:00:52;100894.31;;;-1.20;62.19
59055;BME280;44845;51.444;7.460;2022-12-18T04:03:20;100890.19;;;-1.18;61.79
59055;BME280;44845;51.444;7.460;2022-12-18T04:05:48;100892.38;;;-1.25;62.27
59055;BME280;44845;51.444;7.460;2022-12-18T04:08:15;100891.75;;;-1.20;62.20
59055;BME280;44845;51.444;7.460;2022-12-18T04:10:41;100883.41;;;-1.16;62.04
59055;BME280;44845;51.444;7.460;2022-12-18T04:13:06;100882.00;;;-1.26;61.71
59055;BME280;44845;51.444;7.460;2022-12-18T04:15:34;100878.00;;;-1.21;61.59
59055;BME280;44845;51.444;7.460;2022-12-18T04:18:01;100881.31;;;-1.23;61.33
59055;BME280;44845;51.444;7.460;2022-12-18T04:20:26;100887.75;;;-1.15;60.99
59055;BME280;44845;51.444;7.460;2022-12-18T04:22:52;100886.97;;;-1.14;61.73
59055;BME280;44845;51.444;7.460;2022-12-18T04:25:17;100888.91;;;-1.10;61.09
59055;BME280;44845;51.444;7.460;2022-12-18T04:27:42;100887.47;;;-1.05;60.83
59055;BME280;44845;51.444;7.460;2022-12-18T04:30:08;100889.28;;;-1.04;61.06
59055;BME280;44845;51.444;7.460;2022-12-18T04:32:34;100890.94;;;-1.04;60.93
59055;BME280;44845;51.444;7.460;2022-12-18T04:34:59;100889.28;;;-1.04;61.29
59055;BME280;44845;51.444;7.460;2022-12-18T04:37:25;100889.16;;;-1.05;60.99
59055;BME280;44845;51.444;7.460;2022-12-18T04:39:50;100886.44;;;-1.08;61.16
59055;BME280;44845;51.444;7.460;2022-12-18T04:42:15;100882.97;;;-1.09;61.07
59055;BME280;44845;51.444;7.460;2022-12-18T04:44:41;100886.97;;;-1.14;61.40
59055;BME280;44845;51.444;7.460;2022-12-18T04:47:06;100888.66;;;-1.15;61.35
59055;BME280;44845;51.444;7.460;2022-12-18T04:49:32;100882.91;;;-1.26;61.78
59055;BME280;44845;51.444;7.460;2022-12-18T04:51:58;100885.47;;;-1.26;61.70
59055;BME280;44845;51.444;7.460;2022-12-18T04:54:23;100880.94;;;-1.30;61.96
59055;BME280;44845;51.444;7.460;2022-12-18T04:56:48;100879.97;;;-1.32;61.97
59055;BME280;44845;51.444;7.460;2022-12-18T04:59:14;100885.75;;;-1.36;62.14
59055;BME280;44845;51.444;7.460;2022-12-18T05:01:39;100887.16;;;-1.41;62.29
59055;BME280;44845;51.444;7.460;2022-12-18T05:04:04;100883.81;;;-1.40;62.20
59055;BME280;44845;51.444;7.460;2022-12-18T05:06:30;100883.81;;;-1.40;62.22
59055;BME280;44845;51.444;7.460;2022-12-18T05:08:55;100877.50;;;-1.45;62.23
59055;BME280;44845;51.444;7.460;2022-12-18T05:11:21;100867.81;;;-1.50;62.35
59055;BME280;44845;51.444;7.460;2022-12-18T05:13:47;100877.94;;;-1.53;62.39
59055;BME280;44845;51.444;7.460;2022-12-18T05:16:13;100873.75;;;-1.66;62.89
59055;BME280;44845;51.444;7.460;2022-12-18T05:18:39;100867.09;;;-1.62;62.63
59055;BME280;44845;51.444;7.460;2022-12-18T05:21:04;100860.63;;;-1.71;62.84
59055;BME280;44845;51.444;7.460;2022-12-18T05:23:30;100862.13;;;-1.74;62.91
59055;BME280;44845;51.444;7.460;2022-12-18T05:28:23;100853.97;;;-1.82;63.13
59055;BME280;44845;51.444;7.460;2022-12-18T05:30:54;100849.34;;;-1.88;63.13
59055;BME280;44845;51.444;7.460;2022-12-18T05:33:21;100843.41;;;-1.87;62.82
59055;BME280;44845;51.444;7.460;2022-12-18T05:35:53;100839.94;;;-1.87;62.30
59055;BME280;44845;51.444;7.460;2022-12-18T05:38:20;100848.63;;;-1.85;62.54
59055;BME280;44845;51.444;7.460;2022-12-18T05:40:46;100845.25;;;-1.84;62.31
59055;BME280;44845;51.444;7.460;2022-12-18T05:43:12;100845.44;;;-1.81;62.32
59055;BME280;44845;51.444;7.460;2022-12-18T05:45:38;100841.69;;;-1.86;62.43
59055;BME280;44845;51.444;7.460;2022-12-18T05:48:04;100852.19;;;-1.83;62.09
59055;BME280;44845;51.444;7.460;2022-12-18T05:50:30;100848.97;;;-1.79;61.88
59055;BME280;44845;51.444;7.460;2022-12-18T05:52:55;100852.53;;;-1.77;62.05
59055;BME280;44845;51.444;7.460;2022-12-18T05:55:21;100854.94;;;-1.80;61.98
59055;BME280;44845;51.444;7.460;2022-12-18T05:57:46;100861.06;;;-1.78;61.96
59055;BME280;44845;51.444;7.460;2022-12-18T06:00:12;100874.69;;;-1.79;61.58
59055;BME280;44845;51.444;7.460;2022-12-18T06:02:37;100876.50;;;-1.78;62.17
59055;BME280;44845;51.444;7.460;2022-12-18T06:05:03;100874.91;;;-1.76;61.58
59055;BME280;44845;51.444;7.460;2022-12-18T06:07:28;100882.41;;;-1.79;61.60
59055;BME280;44845;51.444;7.460;2022-12-18T06:09:54;100879.84;;;-1.79;61.34
59055;BME280;44845;51.444;7.460;2022-12-18T06:12:19;100879.84;;;-1.79;61.55
59055;BME280;44845;51.444;7.460;2022-12-18T06:14:45;100888.38;;;-1.80;61.67
59055;BME280;44845;51.444;7.460;2022-12-18T06:17:10;100885.81;;;-1.80;61.88
59055;BME280;44845;51.444;7.460;2022-12-18T06:19:35;100881.78;;;-1.90;61.66
59055;BME280;44845;51.444;7.460;2022-12-18T06:22:01;100893.84;;;-1.89;61.46
59055;BME280;44845;51.444;7.460;2022-12-18T06:24:26;100894.75;;;-1.88;61.72
59055;BME280;44845;51.444;7.460;2022-12-18T06:26:51;100895.72;;;-1.86;61.70
59055;BME280;44845;51.444;7.460;2022-12-18T06:29:17;100910.34;;;-1.85;61.20
59055;BME280;44845;51.444;7.460;2022-12-18T06:31:42;100913.00;;;-1.84;61.42
59055;BME280;44845;51.444;7.460;2022-12-18T06:34:07;100909.00;;;-1.94;61.64
59055;BME280;44845;51.444;7.460;2022-12-18T06:36:33;100917.25;;;-1.84;61.62
59055;BME280;44845;51.444;7.460;2022-12-18T06:38:58;100916.28;;;-1.86;61.62
59055;BME280;44845;51.444;7.460;2022-12-18T06:41:24;100917.25;;;-1.84;61.47
59055;BME280;44845;51.444;7.460;2022-12-18T06:43:49;100912.13;;;-1.84;61.56
59055;BME280;44845;51.444;7.460;2022-12-18T06:46:15;100913.91;;;-1.83;60.74
59055;BME280;44845;51.444;7.460;2022-12-18T06:48:40;100902.84;;;-1.82;61.24
59055;BME280;44845;51.444;7.460;2022-12-18T06:51:05;100902.84;;;-1.82;61.17
59055;BME280;44845;51.444;7.460;2022-12-18T06:53:32;100908.69;;;-1.85;61.94
59055;BME280;44845;51.444;7.460;2022-12-18T06:56:05;100900.78;;;-1.88;61.22
59055;BME280;44845;51.444;7.460;2022-12-18T06:58:31;100904.25;;;-1.87;61.36
59055;BME280;44845;51.444;7.460;2022-12-18T07:01:01;100902.56;;;-1.87;61.41
59055;BME280;44845;51.444;7.460;2022-12-18T07:03:27;100891.53;;;-1.84;60.91
59055;BME280;44845;51.444;7.460;2022-12-18T07:05:52;100884.66;;;-1.85;61.50
59055;BME280;44845;51.444;7.460;2022-12-18T07:08:17;100879.84;;;-1.79;60.83
59055;BME280;44845;51.444;7.460;2022-12-18T07:10:43;100875.53;;;-1.80;60.92
59055;BME280;44845;51.444;7.460;2022-12-18T07:13:09;100878.25;;;-1.77;61.10
59055;BME280;44845;51.444;7.460;2022-12-18T07:15:35;100877.72;;;-1.71;60.77
59055;BME280;44845;51.444;7.460;2022-12-18T07:18:00;100883.59;;;-1.74;60.70
59055;BME280;44845;51.444;7.460;2022-12-18T07:20:25;100881.00;;;-1.74;60.16
59055;BME280;44845;51.444;7.460;2022-12-18T07:22:51;100878.44;;;-1.74;60.61
59055;BME280;44845;51.444;7.460;2022-12-18T07:25:16;100875.09;;;-1.73;60.33
59055;BME280;44845;51.444;7.460;2022-12-18T07:27:41;100876.50;;;-1.78;60.70
59055;BME280;44845;51.444;7.460;2022-12-18T07:30:07;100877.28;;;-1.79;60.34
59055;BME280;44845;51.444;7.460;2022-12-18T07:32:33;100879.34;;;-1.73;60.68
59055;BME280;44845;51.444;7.460;2022-12-18T07:34:59;100871.53;;;-1.75;60.60
59055;BME280;44845;51.444;7.460;2022-12-18T07:37:24;100869.66;;;-1.77;60.45
59055;BME280;44845;51.444;7.460;2022-12-18T07:39:50;100865.50;;;-1.75;60.61
59055;BME280;44845;51.444;7.460;2022-12-18T07:42:15;100864.41;;;-1.79;60.97
59055;BME280;44845;51.444;7.460;2022-12-18T07:44:55;100859.13;;;-1.82;61.02
59055;BME280;44845;51.444;7.460;2022-12-18T07:47:21;100861.84;;;-1.79;61.13
59055;BME280;44845;51.444;7.460;2022-12-18T07:49:46;100861.75;;;-1.81;60.36
59055;BME280;44845;51.444;7.460;2022-12-18T07:52:11;100862.47;;;-1.83;60.57
59055;BME280;44845;51.444;7.460;2022-12-18T07:54:37;100860.88;;;-1.81;60.92
59055;BME280;44845;51.444;7.460;2022-12-18T07:57:03;100853.34;;;-1.78;60.75
59055;BME280;44845;51.444;7.460;2022-12-18T07:59:28;100857.06;;;-1.73;60.55
59055;BME280;44845;51.444;7.460;2022-12-18T08:01:53;100856.69;;;-1.79;61.04
59055;BME280;44845;51.444;7.460;2022-12-18T08:04:19;100865.78;;;-1.71;60.45
59055;BME280;44845;51.444;7.460;2022-12-18T08:06:44;100869.31;;;-1.68;60.69
59055;BME280;44845;51.444;7.460;2022-12-18T08:09:10;100865.13;;;-1.66;60.66
59055;BME280;44845;51.444;7.460;2022-12-18T08:11:35;100853.44;;;-1.61;60.44
59055;BME280;44845;51.444;7.460;2022-12-18T08:14:00;100848.66;;;-1.55;60.22
59055;BME280;44845;51.444;7.460;2022-12-18T08:16:26;100846.25;;;-1.52;60.05
59055;BME280;44845;51.444;7.460;2022-12-18T08:18:52;100844.75;;;-1.48;59.79
59055;BME280;44845;51.444;7.460;2022-12-18T08:21:23;100845.78;;;-1.44;59.41
59055;BME280;44845;51.444;7.460;2022-12-18T08:23:50;100842.50;;;-1.42;58.95
59055;BME280;44845;51.444;7.460;2022-12-18T08:26:16;100840.84;;;-1.41;58.76
59055;BME280;44845;51.444;7.460;2022-12-18T08:28:42;100832.22;;;-1.42;59.06
59055;BME280;44845;51.444;7.460;2022-12-18T08:31:08;100827.00;;;-1.43;59.16
59055;BME280;44845;51.444;7.460;2022-12-18T08:33:34;100816.00;;;-1.41;59.75
59055;BME280;44845;51.444;7.460;2022-12-18T08:36:01;100821.47;;;-1.34;58.75
59055;BME280;44845;51.444;7.460;2022-12-18T08:38:27;100805.50;;;-1.29;58.55
59055;BME280;44845;51.444;7.460;2022-12-18T08:41:06;100810.00;;;-1.25;58.16
59055;BME280;44845;51.444;7.460;2022-12-18T08:43:32;100805.22;;;-1.18;58.15
59055;BME280;44845;51.444;7.460;2022-12-18T08:46:18;100808.03;;;-1.14;58.30
59055;BME280;44845;51.444;7.460;2022-12-18T08:48:44;100794.44;;;-1.11;58.17
59055;BME280;44845;51.444;7.460;2022-12-18T08:51:09;100796.47;;;-1.05;58.07
59055;BME280;44845;51.444;7.460;2022-12-18T08:53:35;100785.38;;;-1.04;57.45
59055;BME280;44845;51.444;7.460;2022-12-18T08:56:02;100794.06;;;-1.02;57.46
59055;BME280;44845;51.444;7.460;2022-12-18T08:58:27;100791.91;;;-0.94;57.42
59055;BME280;44845;51.444;7.460;2022-12-18T09:00:53;100794.31;;;-0.97;57.20
59055;BME280;44845;51.444;7.460;2022-12-18T09:03:19;100796.88;;;-0.97;56.33
59055;BME280;44845;51.444;7.460;2022-12-18T09:05:48;100799.16;;;-0.87;56.70
59055;BME280;44845;51.444;7.460;2022-12-18T09:08:13;100799.34;;;-0.84;56.17
59055;BME280;44845;51.444;7.460;2022-12-18T09:10:46;100802.88;;;-0.82;55.01
59055;BME280;44845;51.444;7.460;2022-12-18T09:13:13;100799.84;;;-0.74;55.00
59055;BME280;44845;51.444;7.460;2022-12-18T09:15:48;100791.13;;;-0.76;54.51
59055;BME280;44845;51.444;7.460;2022-12-18T09:18:14;100792.53;;;-0.66;55.03
59055;BME280;44845;51.444;7.460;2022-12-18T09:20:40;100795.47;;;-0.59;55.08
59055;BME280;44845;51.444;7.460;2022-12-18T09:23:06;100797.44;;;-0.54;54.24
59055;BME280;44845;51.444;7.460;2022-12-18T09:25:32;100788.50;;;-0.44;53.50
59055;BME280;44845;51.444;7.460;2022-12-18T09:27:59;100781.84;;;-0.39;54.51
59055;BME280;44845;51.444;7.460;2022-12-18T09:30:25;100770.09;;;-0.34;53.44
59055;BME280;44845;51.444;7.460;2022-12-18T09:32:50;100765.84;;;-0.33;54.04
59055;BME280;44845;51.444;7.460;2022-12-18T09:35:16;100766.16;;;-0.27;53.73
59055;BME280;44845;51.444;7.460;2022-12-18T09:37:41;100781.94;;;-0.21;53.42
59055;BME280;44845;51.444;7.460;2022-12-18T09:40:13;100767.88;;;-0.09;53.47
59055;BME280;44845;51.444;7.460;2022-12-18T09:42:39;100759.34;;;-0.08;54.09
59055;BME280;44845;51.444;7.460;2022-12-18T09:45:07;100751.06;;;-0.03;52.94
59055;BME280;44845;51.444;7.460;2022-12-18T09:47:39;100743.22;;;-0.04;53.94
59055;BME280;44845;51.444;7.460;2022-12-18T09:50:35;100745.47;;;0.06;53.31
59055;BME280;44845;51.444;7.460;2022-12-18T09:53:04;100744.78;;;0.10;53.42
59055;BME280;44845;51.444;7.460;2022-12-18T09:55:36;100741.56;;;0.15;53.61
59055;BME280;44845;51.444;7.460;2022-12-18T09:58:10;100748.03;;;0.06;53.38
59055;BME280;44845;51.444;7.460;2022-12-18T10:00:38;100752.03;;;0.18;53.43
59055;BME280;44845;51.444;7.460;2022-12-18T10:03:09;100751.50;;;0.25;54.26
59055;BME280;44845;51.444;7.460;2022-12-18T10:05:57;100761.31;;;0.32;53.58
59055;BME280;44845;51.444;7.460;2022-12-18T10:08:34;100751.72;;;0.30;54.18
59055;BME280;44845;51.444;7.460;2022-12-18T10:14:21;100752.63;;;0.30;52.23
59055;BME280;44845;51.444;7.460;2022-12-18T10:19:47;100742.59;;;0.55;51.83
59055;BME280;44845;51.444;7.460;2022-12-18T10:22:23;100735.75;;;0.55;50.86
59055;BME280;44845;51.444;7.460;2022-12-18T10:25:13;100730.06;;;0.63;50.46
59055;BME280;44845;51.444;7.460;2022-12-18T10:27:40;100717.94;;;0.62;49.09
59055;BME280;44845;51.444;7.460;2022-12-18T10:30:13;100711.88;;;0.80;51.36
59055;BME280;44845;51.444;7.460;2022-12-18T10:32:39;100713.19;;;0.89;50.38
59055;BME280;44845;51.444;7.460;2022-12-18T10:35:08;100703.22;;;0.97;49.57
59055;BME280;44845;51.444;7.460;2022-12-18T10:37:59;100698.44;;;1.07;48.49
59055;BME280;44845;51.444;7.460;2022-12-18T10:40:25;100696.25;;;0.96;46.69
59055;BME280;44845;51.444;7.460;2022-12-18T10:43:27;100684.84;;;1.11;46.39
59055;BME280;44845;51.444;7.460;2022-12-18T10:51:22;100668.78;;;1.38;49.21
59055;BME280;44845;51.444;7.460;2022-12-18T10:53:55;100665.09;;;1.33;46.86
59055;BME280;44845;51.444;7.460;2022-12-18T10:56:24;100665.25;;;1.36;47.28
59055;BME280;44845;51.444;7.460;2022-12-18T10:59:08;100663.19;;;1.49;47.58
59055;BME280;44845;51.444;7.460;2022-12-18T11:01:56;100661.88;;;1.59;47.38
59055;BME280;44845;51.444;7.460;2022-12-18T11:04:25;100666.91;;;1.55;46.44
59055;BME280;44845;51.444;7.460;2022-12-18T11:06:57;100665.34;;;1.59;46.94
59055;BME280;44845;51.444;7.460;2022-12-18T11:09:25;100672.97;;;1.56;46.95
59055;BME280;44845;51.444;7.460;2022-12-18T11:12:00;100662.91;;;1.62;45.42
59055;BME280;44845;51.444;7.460;2022-12-18T11:14:34;100659.63;;;1.66;45.62
59055;BME280;44845;51.444;7.460;2022-12-18T11:19:56;100659.25;;;1.78;46.90
59055;BME280;44845;51.444;7.460;2022-12-18T11:22:28;100653.19;;;1.78;45.00
59055;BME280;44845;51.444;7.460;2022-12-18T11:24:56;100651.66;;;1.83;45.57
59055;BME280;44845;51.444;7.460;2022-12-18T11:27:22;100646.50;;;1.83;43.94
59055;BME280;44845;51.444;7.460;2022-12-18T11:29:49;100645.13;;;1.91;45.47
59055;BME280;44845;51.444;7.460;2022-12-18T11:32:30;100644.72;;;2.04;44.83
59055;BME280;44845;51.444;7.460;2022-12-18T11:35:04;100646.88;;;1.93;45.92
59055;BME280;44845;51.444;7.460;2022-12-18T11:37:36;100654.19;;;2.03;47.82
59055;BME280;44845;51.444;7.460;2022-12-18T11:40:30;100646.72;;;2.11;48.29
59055;BME280;44845;51.444;7.460;2022-12-18T11:43:14;100640.78;;;2.13;49.69
59055;BME280;44845;51.444;7.460;2022-12-18T11:45:49;100632.19;;;2.14;48.18
59055;BME280;44845;51.444;7.460;2022-12-18T11:48:38;100627.00;;;2.14;47.63
59055;BME280;44845;51.444;7.460;2022-12-18T11:51:13;100618.50;;;2.17;47.77
59055;BME280;44845;51.444;7.460;2022-12-18T11:53:39;100616.03;;;2.20;47.92
59055;BME280;44845;51.444;7.460;2022-12-18T12:07:04;100583.66;;;2.32;45.40
59055;BME280;44845;51.444;7.460;2022-12-18T12:09:50;100568.47;;;2.41;45.12
59055;BME280;44845;51.444;7.460;2022-12-18T12:17:40;100577.53;;;2.53;45.22
59055;BME280;44845;51.444;7.460;2022-12-18T12:26:03;100582.13;;;2.60;44.85
59055;BME280;44845;51.444;7.460;2022-12-18T12:31:37;100571.91;;;2.65;45.37
59055;BME280;44845;51.444;7.460;2022-12-18T12:34:22;100570.16;;;2.64;45.91
59055;BME280;44845;51.444;7.460;2022-12-18T12:39:30;100557.78;;;2.56;43.70
59055;BME280;44845;51.444;7.460;2022-12-18T12:41:57;100543.19;;;2.58;43.44
59055;BME280;44845;51.444;7.460;2022-12-18T12:44:44;100535.53;;;2.62;42.64
59055;BME280;44845;51.444;7.460;2022-12-18T12:47:19;100542.06;;;2.75;43.64
59055;BME280;44845;51.444;7.460;2022-12-18T12:49:46;100537.75;;;2.75;44.61
59055;BME280;44845;51.444;7.460;2022-12-18T12:52:33;100537.75;;;2.75;44.33
59055;BME280;44845;51.444;7.460;2022-12-18T12:55:00;100532.56;;;2.75;43.00
59055;BME280;44845;51.444;7.460;2022-12-18T12:57:42;100536.13;;;2.79;43.39
59055;BME280;44845;51.444;7.460;2022-12-18T13:00:16;100533.66;;;2.82;43.21
59055;BME280;44845;51.444;7.460;2022-12-18T13:03:06;100532.78;;;2.81;42.38
59055;BME280;44845;51.444;7.460;2022-12-18T13:05:43;100526.88;;;2.86;45.25
59055;BME280;44845;51.444;7.460;2022-12-18T13:08:12;100531.88;;;2.81;44.18
59055;BME280;44845;51.444;7.460;2022-12-18T13:10:46;100531.13;;;2.84;44.45
59055;BME280;44845;51.444;7.460;2022-12-18T13:13:13;100541.38;;;2.80;44.37
59055;BME280;44845;51.444;7.460;2022-12-18T13:18:27;100540.50;;;2.80;44.03
59055;BME280;44845;51.444;7.460;2022-12-18T13:25:47;100525.75;;;2.77;44.13
59055;BME280;44845;51.444;7.460;2022-12-18T13:28:14;100521.97;;;2.69;43.67
59055;BME280;44845;51.444;7.460;2022-12-18T13:41:25;100509.44;;;2.55;42.76
59055;BME280;44845;51.444;7.460;2022-12-18T13:44:52;100523.75;;;2.45;44.16
59055;BME280;44845;51.444;7.460;2022-12-18T13:47:00;100530.16;;;2.55;44.24
59055;BME280;44845;51.444;7.460;2022-12-18T13:52:01;100524.56;;;2.44;44.00
59055;BME280;44845;51.444;7.460;2022-12-18T13:56:57;100531.69;;;2.50;44.30
59055;BME280;44845;51.444;7.460;2022-12-18T13:59:40;100534.56;;;2.33;44.99
59055;BME280;44845;51.444;7.460;2022-12-18T14:02:13;100523.31;;;2.33;43.69
59055;BME280;44845;51.444;7.460;2022-12-18T14:04:39;100508.66;;;2.33;44.61
59055;BME280;44845;51.444;7.460;2022-12-18T14:07:13;100504.75;;;2.45;45.23
59055;BME280;44845;51.444;7.460;2022-12-18T14:09:47;100495.72;;;2.33;44.53
59055;BME280;44845;51.444;7.460;2022-12-18T14:12:33;100505.34;;;2.38;43.50
59055;BME280;44845;51.444;7.460;2022-12-18T14:17:47;100499.94;;;2.31;45.08
59055;BME280;44845;51.444;7.460;2022-12-18T14:20:14;100498.31;;;2.33;45.68
59055;BME280;44845;51.444;7.460;2022-12-18T14:22:43;100489.69;;;2.34;45.60
59055;BME280;44845;51.444;7.460;2022-12-18T14:27:42;100473.50;;;2.16;46.64
59055;BME280;44845;51.444;7.460;2022-12-18T14:33:06;100463.69;;;2.07;45.69
59055;BME280;44845;51.444;7.460;2022-12-18T14:35:36;100461.31;;;1.88;46.30
59055;BME280;44845;51.444;7.460;2022-12-18T14:41:01;100456.47;;;1.75;46.28
59055;BME280;44845;51.444;7.460;2022-12-18T14:43:30;100444.13;;;1.67;46.23
59055;BME280;44845;51.444;7.460;2022-12-18T14:45:56;100440.84;;;1.72;45.86